sensor_id;sensor_type;location;lat;lon;timestamp;pressure;altitude;pressure_sealevel;temperature
28305;BMP280;15569;42.652;23.040;2023-01-28T00:00:22;92228.38;;;5.15
28305;BMP280;15569;42.652;23.040;2023-01-28T00:02:47;92226.91;;;4.91
28305;BMP280;15569;42.652;23.040;2023-01-28T00:05:14;92212.78;;;5.02
28305;BMP280;15569;42.652;23.040;2023-01-28T00:07:39;92222.03;;;4.99
28305;BMP280;15569;42.652;23.040;2023-01-28T00:10:05;92226.91;;;4.79
28305;BMP280;15569;42.652;23.040;2023-01-28T00:12:30;92230.19;;;4.78
28305;BMP280;15569;42.652;23.040;2023-01-28T00:14:56;92229.22;;;4.73
28305;BMP280;15569;42.652;23.040;2023-01-28T00:17:21;92227.63;;;4.91
28305;BMP280;15569;42.652;23.040;2023-01-28T00:19:46;92241.00;;;4.89
28305;BMP280;15569;42.652;23.040;2023-01-28T00:22:12;92218.69;;;4.65
28305;BMP280;15569;42.652;23.040;2023-01-28T00:24:37;92240.25;;;4.77
28305;BMP280;15569;42.652;23.040;2023-01-28T00:27:02;92239.53;;;4.44
28305;BMP280;15569;42.652;23.040;2023-01-28T00:29:28;92223.91;;;4.63
28305;BMP280;15569;42.652;23.040;2023-01-28T00:31:53;92241.16;;;4.70
28305;BMP280;15569;42.652;23.040;2023-01-28T00:34:19;92246.00;;;4.29
28305;BMP280;15569;42.652;23.040;2023-01-28T00:36:45;92250.72;;;4.61
28305;BMP280;15569;42.652;23.040;2023-01-28T00:39:22;92240.47;;;4.48
28305;BMP280;15569;42.652;23.040;2023-01-28T00:41:47;92246.13;;;4.31
28305;BMP280;15569;42.652;23.040;2023-01-28T00:44:12;92246.16;;;4.43
28305;BMP280;15569;42.652;23.040;2023-01-28T00:46:38;92257.91;;;4.47
28305;BMP280;15569;42.652;23.040;2023-01-28T00:49:06;92251.41;;;4.62
28305;BMP280;15569;42.652;23.040;2023-01-28T00:51:32;92255.22;;;4.47
28305;BMP280;15569;42.652;23.040;2023-01-28T00:53:57;92246.91;;;4.55
28305;BMP280;15569;42.652;23.040;2023-01-28T00:56:23;92261.84;;;4.67
28305;BMP280;15569;42.652;23.040;2023-01-28T00:58:48;92259.91;;;4.80
28305;BMP280;15569;42.652;23.040;2023-01-28T01:01:22;92254.50;;;4.47
28305;BMP280;15569;42.652;23.040;2023-01-28T01:03:48;92258.66;;;4.59
28305;BMP280;15569;42.652;23.040;2023-01-28T01:06:22;92257.31;;;4.70
28305;BMP280;15569;42.652;23.040;2023-01-28T01:08:49;92258.50;;;4.78
28305;BMP280;15569;42.652;23.040;2023-01-28T01:11:14;92264.00;;;4.81
28305;BMP280;15569;42.652;23.040;2023-01-28T01:13:40;92240.13;;;4.54
28305;BMP280;15569;42.652;23.040;2023-01-28T01:16:14;92261.13;;;4.88
28305;BMP280;15569;42.652;23.040;2023-01-28T01:18:42;92265.13;;;4.66
28305;BMP280;15569;42.652;23.040;2023-01-28T01:21:13;92271.72;;;4.74
28305;BMP280;15569;42.652;23.040;2023-01-28T01:23:39;92266.66;;;4.69
28305;BMP280;15569;42.652;23.040;2023-01-28T01:26:05;92266.97;;;4.63
28305;BMP280;15569;42.652;23.040;2023-01-28T01:28:31;92267.97;;;4.47
28305;BMP280;15569;42.652;23.040;2023-01-28T01:31:05;92264.97;;;4.52
28305;BMP280;15569;42.652;23.040;2023-01-28T01:33:31;92272.69;;;4.58
28305;BMP280;15569;42.652;23.040;2023-01-28T01:35:57;92267.38;;;4.48
28305;BMP280;15569;42.652;23.040;2023-01-28T01:38:23;92276.91;;;4.40
28305;BMP280;15569;42.652;23.040;2023-01-28T01:40:48;92269.56;;;4.40
28305;BMP280;15569;42.652;23.040;2023-01-28T01:43:16;92263.41;;;4.28
28305;BMP280;15569;42.652;23.040;2023-01-28T01:45:43;92272.75;;;4.48
28305;BMP280;15569;42.652;23.040;2023-01-28T01:48:17;92276.16;;;4.49
28305;BMP280;15569;42.652;23.040;2023-01-28T01:50:54;92273.53;;;4.39
28305;BMP280;15569;42.652;23.040;2023-01-28T01:53:22;92274.66;;;4.36
28305;BMP280;15569;42.652;23.040;2023-01-28T01:55:51;92273.91;;;4.45
28305;BMP280;15569;42.652;23.040;2023-01-28T01:58:20;92264.84;;;4.29
28305;BMP280;15569;42.652;23.040;2023-01-28T02:00:47;92276.47;;;4.43
28305;BMP280;15569;42.652;23.040;2023-01-28T02:03:13;92272.50;;;4.23
28305;BMP280;15569;42.652;23.040;2023-01-28T02:05:40;92285.81;;;4.21
28305;BMP280;15569;42.652;23.040;2023-01-28T02:08:05;92282.97;;;4.29
28305;BMP280;15569;42.652;23.040;2023-01-28T02:10:52;92269.94;;;4.04
28305;BMP280;15569;42.652;23.040;2023-01-28T02:13:22;92284.72;;;4.14
28305;BMP280;15569;42.652;23.040;2023-01-28T02:15:48;92285.41;;;3.94
28305;BMP280;15569;42.652;23.040;2023-01-28T02:18:14;92288.88;;;4.06
28305;BMP280;15569;42.652;23.040;2023-01-28T02:26:41;92281.56;;;4.18
28305;BMP280;15569;42.652;23.040;2023-01-28T02:29:18;92298.28;;;4.17
28305;BMP280;15569;42.652;23.040;2023-01-28T02:31:53;92289.81;;;4.41
28305;BMP280;15569;42.652;23.040;2023-01-28T02:34:37;92291.28;;;4.11
28305;BMP280;15569;42.652;23.040;2023-01-28T02:37:12;92291.19;;;4.42
28305;BMP280;15569;42.652;23.040;2023-01-28T02:39:44;92281.69;;;4.30
28305;BMP280;15569;42.652;23.040;2023-01-28T02:42:32;92291.75;;;4.29
28305;BMP280;15569;42.652;23.040;2023-01-28T02:44:58;92294.59;;;4.43
28305;BMP280;15569;42.652;23.040;2023-01-28T02:47:24;92282.66;;;4.34
28305;BMP280;15569;42.652;23.040;2023-01-28T02:50:11;92278.72;;;4.26
28305;BMP280;15569;42.652;23.040;2023-01-28T02:55:50;92278.72;;;4.47
28305;BMP280;15569;42.652;23.040;2023-01-28T03:01:27;92288.66;;;4.65
28305;BMP280;15569;42.652;23.040;2023-01-28T03:04:03;92291.50;;;4.37
28305;BMP280;15569;42.652;23.040;2023-01-28T03:06:42;92298.63;;;4.53
28305;BMP280;15569;42.652;23.040;2023-01-28T03:09:10;92291.84;;;4.31
28305;BMP280;15569;42.652;23.040;2023-01-28T03:12:10;92296.03;;;4.44
28305;BMP280;15569;42.652;23.040;2023-01-28T03:15:00;92295.91;;;4.42
28305;BMP280;15569;42.652;23.040;2023-01-28T03:17:49;92295.97;;;4.32
28305;BMP280;15569;42.652;23.040;2023-01-28T03:20:49;92295.38;;;4.34
28305;BMP280;15569;42.652;23.040;2023-01-28T03:23:58;92305.25;;;4.41
28305;BMP280;15569;42.652;23.040;2023-01-28T03:26:57;92306.94;;;4.15
28305;BMP280;15569;42.652;23.040;2023-01-28T03:29:45;92316.31;;;4.35
28305;BMP280;15569;42.652;23.040;2023-01-28T03:32:30;92309.41;;;4.32
28305;BMP280;15569;42.652;23.040;2023-01-28T03:35:15;92310.63;;;4.41
28305;BMP280;15569;42.652;23.040;2023-01-28T03:38:02;92314.09;;;4.32
28305;BMP280;15569;42.652;23.040;2023-01-28T03:40:55;92301.69;;;4.17
28305;BMP280;15569;42.652;23.040;2023-01-28T03:43:21;92313.72;;;4.16
28305;BMP280;15569;42.652;23.040;2023-01-28T03:45:47;92295.91;;;3.90
28305;BMP280;15569;42.652;23.040;2023-01-28T03:48:19;92305.00;;;4.06
28305;BMP280;15569;42.652;23.040;2023-01-28T03:50:46;92306.44;;;4.07
28305;BMP280;15569;42.652;23.040;2023-01-28T03:53:12;92313.06;;;4.06
28305;BMP280;15569;42.652;23.040;2023-01-28T03:55:42;92304.31;;;4.05
28305;BMP280;15569;42.652;23.040;2023-01-28T03:58:08;92302.00;;;3.90
28305;BMP280;15569;42.652;23.040;2023-01-28T04:00:34;92319.03;;;4.04
28305;BMP280;15569;42.652;23.040;2023-01-28T04:03:13;92312.69;;;4.00
28305;BMP280;15569;42.652;23.040;2023-01-28T04:05:46;92317.47;;;4.11
28305;BMP280;15569;42.652;23.040;2023-01-28T04:08:21;92323.44;;;4.00
28305;BMP280;15569;42.652;23.040;2023-01-28T04:10:47;92316.78;;;4.01
28305;BMP280;15569;42.652;23.040;2023-01-28T04:13:12;92324.28;;;4.02
28305;BMP280;15569;42.652;23.040;2023-01-28T04:15:37;92323.28;;;3.98
28305;BMP280;15569;42.652;23.040;2023-01-28T04:18:03;92295.38;;;3.82
28305;BMP280;15569;42.652;23.040;2023-01-28T04:20:29;92326.78;;;4.10
28305;BMP280;15569;42.652;23.040;2023-01-28T04:22:54;92333.34;;;3.57
28305;BMP280;15569;42.652;23.040;2023-01-28T04:25:19;92329.31;;;3.87
28305;BMP280;15569;42.652;23.040;2023-01-28T04:27:45;92331.28;;;3.86
28305;BMP280;15569;42.652;23.040;2023-01-28T04:30:10;92335.94;;;3.45
28305;BMP280;15569;42.652;23.040;2023-01-28T04:32:36;92349.81;;;3.82
28305;BMP280;15569;42.652;23.040;2023-01-28T04:35:02;92340.78;;;3.78
28305;BMP280;15569;42.652;23.040;2023-01-28T04:37:27;92343.97;;;3.95
28305;BMP280;15569;42.652;23.040;2023-01-28T04:39:53;92352.91;;;3.88
28305;BMP280;15569;42.652;23.040;2023-01-28T04:42:18;92357.81;;;4.01
28305;BMP280;15569;42.652;23.040;2023-01-28T04:44:43;92351.38;;;3.85
28305;BMP280;15569;42.652;23.040;2023-01-28T04:47:09;92356.19;;;3.87
28305;BMP280;15569;42.652;23.040;2023-01-28T04:49:34;92353.63;;;3.89
28305;BMP280;15569;42.652;23.040;2023-01-28T04:51:59;92355.66;;;3.79
28305;BMP280;15569;42.652;23.040;2023-01-28T04:54:25;92366.50;;;3.90
28305;BMP280;15569;42.652;23.040;2023-01-28T04:56:50;92366.94;;;3.87
28305;BMP280;15569;42.652;23.040;2023-01-28T04:59:16;92355.56;;;3.98
28305;BMP280;15569;42.652;23.040;2023-01-28T05:01:41;92362.00;;;3.83
28305;BMP280;15569;42.652;23.040;2023-01-28T05:04:06;92371.09;;;4.09
28305;BMP280;15569;42.652;23.040;2023-01-28T05:06:33;92365.09;;;3.89
28305;BMP280;15569;42.652;23.040;2023-01-28T05:08:58;92374.28;;;4.27
28305;BMP280;15569;42.652;23.040;2023-01-28T05:11:24;92375.38;;;4.02
28305;BMP280;15569;42.652;23.040;2023-01-28T05:13:50;92378.69;;;4.22
28305;BMP280;15569;42.652;23.040;2023-01-28T05:16:15;92384.41;;;4.07
28305;BMP280;15569;42.652;23.040;2023-01-28T05:18:41;92377.75;;;4.08
28305;BMP280;15569;42.652;23.040;2023-01-28T05:21:06;92385.63;;;4.15
28305;BMP280;15569;42.652;23.040;2023-01-28T05:23:32;92391.69;;;4.26
28305;BMP280;15569;42.652;23.040;2023-01-28T05:25:57;92397.56;;;4.43
28305;BMP280;15569;42.652;23.040;2023-01-28T05:28:22;92381.78;;;4.19
28305;BMP280;15569;42.652;23.040;2023-01-28T05:30:48;92395.34;;;4.30
28305;BMP280;15569;42.652;23.040;2023-01-28T05:33:13;92389.72;;;4.26
28305;BMP280;15569;42.652;23.040;2023-01-28T05:35:38;92391.53;;;4.33
28305;BMP280;15569;42.652;23.040;2023-01-28T05:38:04;92398.03;;;4.30
28305;BMP280;15569;42.652;23.040;2023-01-28T05:40:30;92407.19;;;4.46
28305;BMP280;15569;42.652;23.040;2023-01-28T05:42:56;92408.03;;;4.39
28305;BMP280;15569;42.652;23.040;2023-01-28T05:45:21;92413.34;;;4.28
28305;BMP280;15569;42.652;23.040;2023-01-28T05:47:46;92416.75;;;4.19
28305;BMP280;15569;42.652;23.040;2023-01-28T05:50:13;92416.63;;;4.26
28305;BMP280;15569;42.652;23.040;2023-01-28T05:52:38;92397.56;;;4.12
28305;BMP280;15569;42.652;23.040;2023-01-28T05:55:04;92424.69;;;4.17
28305;BMP280;15569;42.652;23.040;2023-01-28T05:57:30;92422.56;;;4.15
28305;BMP280;15569;42.652;23.040;2023-01-28T05:59:55;92421.56;;;3.80
28305;BMP280;15569;42.652;23.040;2023-01-28T06:02:21;92419.97;;;3.96
28305;BMP280;15569;42.652;23.040;2023-01-28T06:04:46;92417.13;;;3.94
28305;BMP280;15569;42.652;23.040;2023-01-28T06:07:12;92426.88;;;3.99
28305;BMP280;15569;42.652;23.040;2023-01-28T06:09:38;92423.06;;;4.02
28305;BMP280;15569;42.652;23.040;2023-01-28T06:12:04;92431.56;;;3.98
28305;BMP280;15569;42.652;23.040;2023-01-28T06:14:29;92422.84;;;3.79
28305;BMP280;15569;42.652;23.040;2023-01-28T06:16:55;92411.22;;;3.76
28305;BMP280;15569;42.652;23.040;2023-01-28T06:19:20;92430.47;;;3.73
28305;BMP280;15569;42.652;23.040;2023-01-28T06:21:45;92435.84;;;3.92
28305;BMP280;15569;42.652;23.040;2023-01-28T06:24:11;92439.91;;;3.93
28305;BMP280;15569;42.652;23.040;2023-01-28T06:26:38;92439.69;;;3.70
28305;BMP280;15569;42.652;23.040;2023-01-28T06:29:03;92451.97;;;3.73
28305;BMP280;15569;42.652;23.040;2023-01-28T06:31:29;92446.75;;;3.75
28305;BMP280;15569;42.652;23.040;2023-01-28T06:33:54;92446.59;;;3.92
28305;BMP280;15569;42.652;23.040;2023-01-28T06:36:20;92457.91;;;3.90
28305;BMP280;15569;42.652;23.040;2023-01-28T06:38:45;92448.31;;;3.87
28305;BMP280;15569;42.652;23.040;2023-01-28T06:41:11;92466.81;;;3.93
28305;BMP280;15569;42.652;23.040;2023-01-28T06:43:36;92479.78;;;4.06
28305;BMP280;15569;42.652;23.040;2023-01-28T06:46:01;92468.50;;;3.88
28305;BMP280;15569;42.652;23.040;2023-01-28T06:48:27;92479.53;;;4.02
28305;BMP280;15569;42.652;23.040;2023-01-28T06:50:53;92484.59;;;4.17
28305;BMP280;15569;42.652;23.040;2023-01-28T06:53:19;92491.66;;;4.22
28305;BMP280;15569;42.652;23.040;2023-01-28T06:55:45;92490.72;;;3.98
28305;BMP280;15569;42.652;23.040;2023-01-28T06:58:10;92485.50;;;3.81
28305;BMP280;15569;42.652;23.040;2023-01-28T07:00:36;92485.09;;;3.75
28305;BMP280;15569;42.652;23.040;2023-01-28T07:03:02;92493.56;;;3.81
28305;BMP280;15569;42.652;23.040;2023-01-28T07:05:28;92490.47;;;3.75
28305;BMP280;15569;42.652;23.040;2023-01-28T07:07:53;92489.63;;;3.53
28305;BMP280;15569;42.652;23.040;2023-01-28T07:10:18;92508.56;;;3.75
28305;BMP280;15569;42.652;23.040;2023-01-28T07:12:44;92491.03;;;3.55
28305;BMP280;15569;42.652;23.040;2023-01-28T07:15:10;92513.66;;;3.90
28305;BMP280;15569;42.652;23.040;2023-01-28T07:17:39;92510.41;;;3.63
28305;BMP280;15569;42.652;23.040;2023-01-28T07:20:05;92517.34;;;3.75
28305;BMP280;15569;42.652;23.040;2023-01-28T07:22:31;92516.63;;;3.56
28305;BMP280;15569;42.652;23.040;2023-01-28T07:24:56;92511.22;;;3.27
28305;BMP280;15569;42.652;23.040;2023-01-28T07:27:23;92520.13;;;3.20
28305;BMP280;15569;42.652;23.040;2023-01-28T07:29:48;92530.94;;;3.03
28305;BMP280;15569;42.652;23.040;2023-01-28T07:32:14;92516.59;;;3.17
28305;BMP280;15569;42.652;23.040;2023-01-28T07:34:39;92528.56;;;3.07
28305;BMP280;15569;42.652;23.040;2023-01-28T07:37:07;92518.97;;;2.67
28305;BMP280;15569;42.652;23.040;2023-01-28T07:39:33;92529.97;;;2.98
28305;BMP280;15569;42.652;23.040;2023-01-28T07:41:59;92521.78;;;2.60
28305;BMP280;15569;42.652;23.040;2023-01-28T07:44:24;92523.53;;;2.74
28305;BMP280;15569;42.652;23.040;2023-01-28T07:46:50;92524.91;;;3.12
28305;BMP280;15569;42.652;23.040;2023-01-28T07:49:15;92544.22;;;2.91
28305;BMP280;15569;42.652;23.040;2023-01-28T07:51:40;92533.59;;;2.93
28305;BMP280;15569;42.652;23.040;2023-01-28T07:54:07;92538.66;;;3.25
28305;BMP280;15569;42.652;23.040;2023-01-28T07:56:33;92543.91;;;3.62
28305;BMP280;15569;42.652;23.040;2023-01-28T07:58:58;92550.56;;;3.80
28305;BMP280;15569;42.652;23.040;2023-01-28T08:01:24;92542.94;;;3.86
28305;BMP280;15569;42.652;23.040;2023-01-28T08:03:50;92533.03;;;3.98
28305;BMP280;15569;42.652;23.040;2023-01-28T08:06:15;92537.81;;;4.09
28305;BMP280;15569;42.652;23.040;2023-01-28T08:08:40;92559.91;;;4.17
28305;BMP280;15569;42.652;23.040;2023-01-28T08:11:09;92552.19;;;4.42
28305;BMP280;15569;42.652;23.040;2023-01-28T08:13:37;92555.41;;;4.60
28305;BMP280;15569;42.652;23.040;2023-01-28T08:16:03;92549.59;;;4.63
28305;BMP280;15569;42.652;23.040;2023-01-28T08:18:28;92568.13;;;4.69
28305;BMP280;15569;42.652;23.040;2023-01-28T08:20:55;92555.97;;;4.68
28305;BMP280;15569;42.652;23.040;2023-01-28T08:23:21;92565.16;;;4.74
28305;BMP280;15569;42.652;23.040;2023-01-28T08:25:47;92571.50;;;4.89
28305;BMP280;15569;42.652;23.040;2023-01-28T08:28:14;92569.59;;;5.01
28305;BMP280;15569;42.652;23.040;2023-01-28T08:30:40;92573.19;;;5.15
28305;BMP280;15569;42.652;23.040;2023-01-28T08:33:08;92574.41;;;5.23
28305;BMP280;15569;42.652;23.040;2023-01-28T08:35:34;92575.66;;;5.32
28305;BMP280;15569;42.652;23.040;2023-01-28T08:38:01;92578.22;;;5.30
28305;BMP280;15569;42.652;23.040;2023-01-28T08:40:28;92581.38;;;5.48
28305;BMP280;15569;42.652;23.040;2023-01-28T08:42:53;92584.72;;;5.58
28305;BMP280;15569;42.652;23.040;2023-01-28T08:45:20;92585.03;;;5.73
28305;BMP280;15569;42.652;23.040;2023-01-28T08:50:19;92584.63;;;5.88
28305;BMP280;15569;42.652;23.040;2023-01-28T08:52:47;92581.25;;;5.88
28305;BMP280;15569;42.652;23.040;2023-01-28T08:55:14;92584.41;;;5.84
28305;BMP280;15569;42.652;23.040;2023-01-28T08:57:40;92581.72;;;5.84
28305;BMP280;15569;42.652;23.040;2023-01-28T09:00:07;92583.56;;;5.82
28305;BMP280;15569;42.652;23.040;2023-01-28T09:02:38;92585.84;;;5.97
28305;BMP280;15569;42.652;23.040;2023-01-28T09:05:04;92577.38;;;5.91
28305;BMP280;15569;42.652;23.040;2023-01-28T09:07:30;92587.47;;;5.90
28305;BMP280;15569;42.652;23.040;2023-01-28T09:09:56;92574.91;;;5.83
28305;BMP280;15569;42.652;23.040;2023-01-28T09:12:21;92591.66;;;6.15
28305;BMP280;15569;42.652;23.040;2023-01-28T09:14:47;92582.75;;;5.91
28305;BMP280;15569;42.652;23.040;2023-01-28T09:17:12;92585.31;;;6.10
28305;BMP280;15569;42.652;23.040;2023-01-28T09:19:38;92588.50;;;5.64
28305;BMP280;15569;42.652;23.040;2023-01-28T09:22:04;92579.78;;;5.75
28305;BMP280;15569;42.652;23.040;2023-01-28T09:24:29;92580.38;;;5.85
28305;BMP280;15569;42.652;23.040;2023-01-28T09:26:54;92585.91;;;6.09
28305;BMP280;15569;42.652;23.040;2023-01-28T09:29:20;92571.84;;;6.10
28305;BMP280;15569;42.652;23.040;2023-01-28T09:31:45;92575.28;;;6.01
28305;BMP280;15569;42.652;23.040;2023-01-28T09:34:11;92587.53;;;6.14
28305;BMP280;15569;42.652;23.040;2023-01-28T09:36:36;92581.50;;;6.25
28305;BMP280;15569;42.652;23.040;2023-01-28T09:39:02;92567.59;;;6.07
28305;BMP280;15569;42.652;23.040;2023-01-28T09:41:38;92574.78;;;5.81
28305;BMP280;15569;42.652;23.040;2023-01-28T09:46:47;92582.28;;;6.27
28305;BMP280;15569;42.652;23.040;2023-01-28T09:49:25;92572.06;;;6.58
28305;BMP280;15569;42.652;23.040;2023-01-28T09:51:53;92584.84;;;6.46
28305;BMP280;15569;42.652;23.040;2023-01-28T09:54:34;92589.94;;;6.75
28305;BMP280;15569;42.652;23.040;2023-01-28T09:57:27;92589.25;;;6.42
28305;BMP280;15569;42.652;23.040;2023-01-28T09:59:54;92580.25;;;6.37
28305;BMP280;15569;42.652;23.040;2023-01-28T10:02:37;92581.53;;;6.36
28305;BMP280;15569;42.652;23.040;2023-01-28T10:10:46;92583.78;;;6.51
28305;BMP280;15569;42.652;23.040;2023-01-28T10:19:06;92576.41;;;6.75
28305;BMP280;15569;42.652;23.040;2023-01-28T10:21:46;92560.09;;;6.50
28305;BMP280;15569;42.652;23.040;2023-01-28T10:24:17;92575.72;;;6.74
28305;BMP280;15569;42.652;23.040;2023-01-28T10:26:47;92587.94;;;6.64
28305;BMP280;15569;42.652;23.040;2023-01-28T10:29:16;92583.97;;;6.88
28305;BMP280;15569;42.652;23.040;2023-01-28T10:32:25;92578.44;;;6.98
28305;BMP280;15569;42.652;23.040;2023-01-28T10:34:30;92577.84;;;6.99
28305;BMP280;15569;42.652;23.040;2023-01-28T10:36:57;92577.38;;;6.80
28305;BMP280;15569;42.652;23.040;2023-01-28T10:39:24;92573.72;;;6.75
28305;BMP280;15569;42.652;23.040;2023-01-28T10:41:50;92572.44;;;6.88
28305;BMP280;15569;42.652;23.040;2023-01-28T10:44:26;92580.75;;;6.68
28305;BMP280;15569;42.652;23.040;2023-01-28T10:49:22;92580.06;;;6.80
28305;BMP280;15569;42.652;23.040;2023-01-28T10:51:49;92575.03;;;6.97
28305;BMP280;15569;42.652;23.040;2023-01-28T10:54:26;92582.53;;;6.87
28305;BMP280;15569;42.652;23.040;2023-01-28T10:57:03;92575.72;;;7.09
28305;BMP280;15569;42.652;23.040;2023-01-28T10:59:31;92571.97;;;6.80
28305;BMP280;15569;42.652;23.040;2023-01-28T11:02:00;92575.22;;;6.66
28305;BMP280;15569;42.652;23.040;2023-01-28T11:04:32;92567.63;;;6.86
28305;BMP280;15569;42.652;23.040;2023-01-28T11:07:18;92571.72;;;6.99
28305;BMP280;15569;42.652;23.040;2023-01-28T11:09:49;92571.34;;;7.04
28305;BMP280;15569;42.652;23.040;2023-01-28T11:12:22;92571.28;;;7.02
28305;BMP280;15569;42.652;23.040;2023-01-28T11:14:52;92570.69;;;6.92
28305;BMP280;15569;42.652;23.040;2023-01-28T11:17:19;92575.13;;;6.53
28305;BMP280;15569;42.652;23.040;2023-01-28T11:19:45;92559.72;;;6.67
28305;BMP280;15569;42.652;23.040;2023-01-28T11:22:26;92572.28;;;6.51
28305;BMP280;15569;42.652;23.040;2023-01-28T11:24:56;92558.22;;;6.64
28305;BMP280;15569;42.652;23.040;2023-01-28T11:27:27;92578.75;;;6.69
28305;BMP280;15569;42.652;23.040;2023-01-28T11:29:56;92570.19;;;6.72
28305;BMP280;15569;42.652;23.040;2023-01-28T11:32:24;92575.34;;;6.57
28305;BMP280;15569;42.652;23.040;2023-01-28T11:34:52;92572.28;;;6.51
28305;BMP280;15569;42.652;23.040;2023-01-28T11:37:20;92567.03;;;6.53
28305;BMP280;15569;42.652;23.040;2023-01-28T11:39:47;92564.06;;;6.49
28305;BMP280;15569;42.652;23.040;2023-01-28T11:42:18;92574.28;;;6.50
28305;BMP280;15569;42.652;23.040;2023-01-28T11:44:45;92558.31;;;6.54
28305;BMP280;15569;42.652;23.040;2023-01-28T11:55:26;92567.47;;;6.61
28305;BMP280;15569;42.652;23.040;2023-01-28T12:03:26;92551.28;;;7.07
28305;BMP280;15569;42.652;23.040;2023-01-28T12:06:12;92557.13;;;7.38
28305;BMP280;15569;42.652;23.040;2023-01-28T12:08:48;92557.97;;;7.06
28305;BMP280;15569;42.652;23.040;2023-01-28T12:11:36;92556.19;;;7.22
28305;BMP280;15569;42.652;23.040;2023-01-28T12:26:11;92555.56;;;7.47
28305;BMP280;15569;42.652;23.040;2023-01-28T12:32:02;92565.28;;;7.04
28305;BMP280;15569;42.652;23.040;2023-01-28T12:42:41;92576.75;;;6.81
28305;BMP280;15569;42.652;23.040;2023-01-28T12:45:38;92579.00;;;6.96
28305;BMP280;15569;42.652;23.040;2023-01-28T12:48:41;92586.78;;;7.02
28305;BMP280;15569;42.652;23.040;2023-01-28T12:51:26;92587.19;;;6.52
28305;BMP280;15569;42.652;23.040;2023-01-28T12:54:00;92589.47;;;6.23
28305;BMP280;15569;42.652;23.040;2023-01-28T12:56:35;92591.59;;;6.03
28305;BMP280;15569;42.652;23.040;2023-01-28T13:01:41;92597.97;;;5.23
28305;BMP280;15569;42.652;23.040;2023-01-28T13:07:09;92596.72;;;5.45
28305;BMP280;15569;42.652;23.040;2023-01-28T13:09:47;92586.25;;;5.09
28305;BMP280;15569;42.652;23.040;2023-01-28T13:12:13;92604.88;;;5.26
28305;BMP280;15569;42.652;23.040;2023-01-28T13:14:40;92608.91;;;5.46
28305;BMP280;15569;42.652;23.040;2023-01-28T13:17:23;92606.84;;;5.35
28305;BMP280;15569;42.652;23.040;2023-01-28T13:19:48;92609.94;;;5.10
28305;BMP280;15569;42.652;23.040;2023-01-28T13:22:32;92611.03;;;5.17
28305;BMP280;15569;42.652;23.040;2023-01-28T13:25:23;92616.94;;;5.04
28305;BMP280;15569;42.652;23.040;2023-01-28T13:27:58;92624.91;;;5.23
28305;BMP280;15569;42.652;23.040;2023-01-28T13:30:30;92625.31;;;4.98
28305;BMP280;15569;42.652;23.040;2023-01-28T13:33:04;92628.03;;;5.19
28305;BMP280;15569;42.652;23.040;2023-01-28T13:35:34;92637.97;;;5.17
28305;BMP280;15569;42.652;23.040;2023-01-28T13:38:09;92624.16;;;5.32
28305;BMP280;15569;42.652;23.040;2023-01-28T13:40:39;92629.00;;;5.24
28305;BMP280;15569;42.652;23.040;2023-01-28T13:45:56;92633.44;;;5.50
28305;BMP280;15569;42.652;23.040;2023-01-28T13:51:24;92643.06;;;5.53
28305;BMP280;15569;42.652;23.040;2023-01-28T14:10:33;92656.59;;;5.13
28305;BMP280;15569;42.652;23.040;2023-01-28T14:18:52;92666.94;;;4.47
28305;BMP280;15569;42.652;23.040;2023-01-28T14:21:19;92673.88;;;4.50
28305;BMP280;15569;42.652;23.040;2023-01-28T14:23:51;92655.00;;;4.60
28305;BMP280;15569;42.652;23.040;2023-01-28T14:32:24;92678.22;;;4.36
28305;BMP280;15569;42.652;23.040;2023-01-28T14:34:51;92681.91;;;4.69
28305;BMP280;15569;42.652;23.040;2023-01-28T14:37:19;92676.97;;;4.56
28305;BMP280;15569;42.652;23.040;2023-01-28T14:39:54;92678.91;;;4.75
28305;BMP280;15569;42.652;23.040;2023-01-28T14:42:35;92673.94;;;4.81
28305;BMP280;15569;42.652;23.040;2023-01-28T14:50:42;92687.50;;;4.93
28305;BMP280;15569;42.652;23.040;2023-01-28T14:53:24;92690.69;;;4.80
28305;BMP280;15569;42.652;23.040;2023-01-28T14:56:06;92691.53;;;4.72
28305;BMP280;15569;42.652;23.040;2023-01-28T14:58:38;92699.78;;;4.65
28305;BMP280;15569;42.652;23.040;2023-01-28T15:01:24;92701.31;;;4.78
28305;BMP280;15569;42.652;23.040;2023-01-28T15:03:50;92704.59;;;4.66
28305;BMP280;15569;42.652;23.040;2023-01-28T15:06:19;92693.09;;;4.66
28305;BMP280;15569;42.652;23.040;2023-01-28T15:08:45;92710.19;;;4.90
28305;BMP280;15569;42.652;23.040;2023-01-28T15:11:14;92710.50;;;5.03
28305;BMP280;15569;42.652;23.040;2023-01-28T15:13:45;92697.22;;;4.86
28305;BMP280;15569;42.652;23.040;2023-01-28T15:16:21;92703.84;;;4.95
28305;BMP280;15569;42.652;23.040;2023-01-28T15:18:47;92712.19;;;4.99
28305;BMP280;15569;42.652;23.040;2023-01-28T15:21:21;92707.81;;;4.84
28305;BMP280;15569;42.652;23.040;2023-01-28T15:23:50;92708.53;;;4.85
28305;BMP280;15569;42.652;23.040;2023-01-28T15:26:21;92718.16;;;4.88
28305;BMP280;15569;42.652;23.040;2023-01-28T15:28:48;92701.47;;;4.51
28305;BMP280;15569;42.652;23.040;2023-01-28T15:31:27;92712.22;;;4.22
28305;BMP280;15569;42.652;23.040;2023-01-28T15:34:01;92718.03;;;4.28
28305;BMP280;15569;42.652;23.040;2023-01-28T15:36:27;92713.94;;;4.27
28305;BMP280;15569;42.652;23.040;2023-01-28T15:38:53;92720.28;;;4.22
28305;BMP280;15569;42.652;23.040;2023-01-28T15:41:22;92723.28;;;4.26
28305;BMP280;15569;42.652;23.040;2023-01-28T15:43:50;92728.09;;;4.37
28305;BMP280;15569;42.652;23.040;2023-01-28T15:46:16;92720.88;;;4.11
28305;BMP280;15569;42.652;23.040;2023-01-28T15:48:45;92733.63;;;4.58
28305;BMP280;15569;42.652;23.040;2023-01-28T15:51:29;92741.03;;;5.36
28305;BMP280;15569;42.652;23.040;2023-01-28T15:54:02;92731.81;;;4.70
28305;BMP280;15569;42.652;23.040;2023-01-28T15:56:29;92742.13;;;4.84
28305;BMP280;15569;42.652;23.040;2023-01-28T15:58:55;92740.44;;;4.50
28305;BMP280;15569;42.652;23.040;2023-01-28T16:01:31;92739.16;;;4.41
28305;BMP280;15569;42.652;23.040;2023-01-28T16:04:02;92750.16;;;4.93
28305;BMP280;15569;42.652;23.040;2023-01-28T16:06:41;92755.56;;;4.93
28305;BMP280;15569;42.652;23.040;2023-01-28T16:11:43;92758.84;;;4.63
28305;BMP280;15569;42.652;23.040;2023-01-28T16:14:41;92763.25;;;4.68
28305;BMP280;15569;42.652;23.040;2023-01-28T16:17:08;92740.28;;;4.38
28305;BMP280;15569;42.652;23.040;2023-01-28T16:19:40;92754.03;;;4.52